sensor_id;sensor_type;location;lat;lon;timestamp;P1;durP1;ratioP1;P2;durP2;ratioP2
7181;SDS011;3632;42.724;23.298;2023-07-31T00:00:18;3.27;;;3.00;;
7181;SDS011;3632;42.724;23.298;2023-07-31T00:02:45;3.20;;;2.90;;
7181;SDS011;3632;42.724;23.298;2023-07-31T00:05:11;3.47;;;2.97;;
7181;SDS011;3632;42.724;23.298;2023-07-31T00:07:38;3.40;;;3.10;;
7181;SDS011;3632;42.724;23.298;2023-07-31T00:10:05;3.33;;;3.03;;
7181;SDS011;3632;42.724;23.298;2023-07-31T00:12:34;3.17;;;2.87;;
7181;SDS011;3632;42.724;23.298;2023-07-31T00:15:00;3.17;;;2.87;;
7181;SDS011;3632;42.724;23.298;2023-07-31T00:17:27;3.77;;;2.93;;
7181;SDS011;3632;42.724;23.298;2023-07-31T00:19:54;3.57;;;3.27;;
7181;SDS011;3632;42.724;23.298;2023-07-31T00:22:21;3.10;;;2.80;;
7181;SDS011;3632;42.724;23.298;2023-07-31T00:24:48;3.70;;;3.10;;
7181;SDS011;3632;42.724;23.298;2023-07-31T00:27:14;3.43;;;3.13;;
7181;SDS011;3632;42.724;23.298;2023-07-31T00:29:43;3.70;;;3.40;;
7181;SDS011;3632;42.724;23.298;2023-07-31T00:32:09;3.73;;;3.43;;
7181;SDS011;3632;42.724;23.298;2023-07-31T00:34:36;4.27;;;3.20;;
7181;SDS011;3632;42.724;23.298;2023-07-31T00:37:04;4.00;;;3.33;;
7181;SDS011;3632;42.724;23.298;2023-07-31T00:39:31;3.60;;;3.30;;
7181;SDS011;3632;42.724;23.298;2023-07-31T00:41:58;3.40;;;3.20;;
7181;SDS011;3632;42.724;23.298;2023-07-31T00:44:24;3.83;;;3.53;;
7181;SDS011;3632;42.724;23.298;2023-07-31T00:46:52;4.10;;;3.70;;
7181;SDS011;3632;42.724;23.298;2023-07-31T00:49:20;4.27;;;3.93;;
7181;SDS011;3632;42.724;23.298;2023-07-31T00:51:48;5.37;;;4.33;;
7181;SDS011;3632;42.724;23.298;2023-07-31T00:54:15;4.53;;;4.13;;
7181;SDS011;3632;42.724;23.298;2023-07-31T00:56:41;4.80;;;4.40;;
7181;SDS011;3632;42.724;23.298;2023-07-31T00:59:11;5.43;;;4.77;;
7181;SDS011;3632;42.724;23.298;2023-07-31T01:01:38;6.00;;;5.40;;
7181;SDS011;3632;42.724;23.298;2023-07-31T01:04:07;5.93;;;5.43;;
7181;SDS011;3632;42.724;23.298;2023-07-31T01:06:36;7.10;;;6.40;;
7181;SDS011;3632;42.724;23.298;2023-07-31T01:09:07;6.67;;;5.97;;
7181;SDS011;3632;42.724;23.298;2023-07-31T01:11:41;7.47;;;6.80;;
7181;SDS011;3632;42.724;23.298;2023-07-31T01:14:12;8.00;;;7.40;;
7181;SDS011;3632;42.724;23.298;2023-07-31T01:16:39;8.23;;;7.53;;
7181;SDS011;3632;42.724;23.298;2023-07-31T01:19:07;8.97;;;8.27;;
7181;SDS011;3632;42.724;23.298;2023-07-31T01:21:51;9.77;;;8.93;;
7181;SDS011;3632;42.724;23.298;2023-07-31T01:24:30;9.00;;;8.20;;
7181;SDS011;3632;42.724;23.298;2023-07-31T01:27:10;10.13;;;9.23;;
7181;SDS011;3632;42.724;23.298;2023-07-31T01:29:43;10.37;;;9.57;;
7181;SDS011;3632;42.724;23.298;2023-07-31T01:32:15;10.83;;;9.83;;
7181;SDS011;3632;42.724;23.298;2023-07-31T01:34:45;12.40;;;11.20;;
7181;SDS011;3632;42.724;23.298;2023-07-31T01:37:13;11.93;;;10.83;;
7181;SDS011;3632;42.724;23.298;2023-07-31T01:39:40;13.37;;;12.07;;
7181;SDS011;3632;42.724;23.298;2023-07-31T01:42:07;12.53;;;11.43;;
7181;SDS011;3632;42.724;23.298;2023-07-31T01:44:35;13.77;;;12.53;;
7181;SDS011;3632;42.724;23.298;2023-07-31T01:47:01;14.13;;;12.83;;
7181;SDS011;3632;42.724;23.298;2023-07-31T01:49:28;13.77;;;12.47;;
7181;SDS011;3632;42.724;23.298;2023-07-31T01:51:55;14.57;;;13.17;;
7181;SDS011;3632;42.724;23.298;2023-07-31T01:54:21;15.03;;;13.63;;
7181;SDS011;3632;42.724;23.298;2023-07-31T01:56:48;14.23;;;12.77;;
7181;SDS011;3632;42.724;23.298;2023-07-31T01:59:15;15.03;;;13.70;;
7181;SDS011;3632;42.724;23.298;2023-07-31T02:01:43;15.33;;;13.93;;
7181;SDS011;3632;42.724;23.298;2023-07-31T02:04:10;16.70;;;15.20;;
7181;SDS011;3632;42.724;23.298;2023-07-31T02:06:37;16.03;;;14.57;;
7181;SDS011;3632;42.724;23.298;2023-07-31T02:09:04;16.50;;;15.10;;
7181;SDS011;3632;42.724;23.298;2023-07-31T02:11:30;17.37;;;15.77;;
7181;SDS011;3632;42.724;23.298;2023-07-31T02:13:57;17.70;;;16.00;;
7181;SDS011;3632;42.724;23.298;2023-07-31T02:16:24;16.97;;;15.33;;
7181;SDS011;3632;42.724;23.298;2023-07-31T02:18:52;16.77;;;15.27;;
7181;SDS011;3632;42.724;23.298;2023-07-31T02:21:19;17.53;;;16.00;;
7181;SDS011;3632;42.724;23.298;2023-07-31T02:23:45;17.13;;;15.63;;
7181;SDS011;3632;42.724;23.298;2023-07-31T02:26:12;17.20;;;15.70;;
7181;SDS011;3632;42.724;23.298;2023-07-31T02:28:39;17.03;;;15.63;;
7181;SDS011;3632;42.724;23.298;2023-07-31T02:31:08;17.97;;;16.27;;
7181;SDS011;3632;42.724;23.298;2023-07-31T02:33:35;17.47;;;15.87;;
7181;SDS011;3632;42.724;23.298;2023-07-31T02:36:03;18.13;;;16.43;;
7181;SDS011;3632;42.724;23.298;2023-07-31T02:38:30;18.43;;;16.63;;
7181;SDS011;3632;42.724;23.298;2023-07-31T02:40:57;19.13;;;17.33;;
7181;SDS011;3632;42.724;23.298;2023-07-31T02:43:23;18.40;;;16.87;;
7181;SDS011;3632;42.724;23.298;2023-07-31T02:45:51;18.40;;;16.70;;
7181;SDS011;3632;42.724;23.298;2023-07-31T02:48:18;19.33;;;17.70;;
7181;SDS011;3632;42.724;23.298;2023-07-31T02:50:45;19.20;;;17.37;;
7181;SDS011;3632;42.724;23.298;2023-07-31T02:53:13;18.83;;;17.13;;
7181;SDS011;3632;42.724;23.298;2023-07-31T02:55:40;18.20;;;16.60;;
7181;SDS011;3632;42.724;23.298;2023-07-31T02:58:07;17.53;;;15.93;;
7181;SDS011;3632;42.724;23.298;2023-07-31T03:00:34;17.97;;;16.40;;
7181;SDS011;3632;42.724;23.298;2023-07-31T03:03:00;18.67;;;17.07;;
7181;SDS011;3632;42.724;23.298;2023-07-31T03:05:27;19.10;;;17.50;;
7181;SDS011;3632;42.724;23.298;2023-07-31T03:07:54;19.37;;;17.57;;
7181;SDS011;3632;42.724;23.298;2023-07-31T03:10:22;19.17;;;17.47;;
7181;SDS011;3632;42.724;23.298;2023-07-31T03:12:49;19.23;;;17.53;;
7181;SDS011;3632;42.724;23.298;2023-07-31T03:15:16;18.63;;;16.87;;
7181;SDS011;3632;42.724;23.298;2023-07-31T03:17:42;19.30;;;17.53;;
7181;SDS011;3632;42.724;23.298;2023-07-31T03:20:10;18.70;;;16.87;;
7181;SDS011;3632;42.724;23.298;2023-07-31T03:22:37;19.60;;;17.70;;
7181;SDS011;3632;42.724;23.298;2023-07-31T03:25:04;19.57;;;17.77;;
7181;SDS011;3632;42.724;23.298;2023-07-31T03:27:33;19.00;;;17.27;;
7181;SDS011;3632;42.724;23.298;2023-07-31T03:29:59;19.70;;;17.90;;
7181;SDS011;3632;42.724;23.298;2023-07-31T03:32:27;18.77;;;17.07;;
7181;SDS011;3632;42.724;23.298;2023-07-31T03:34:53;20.67;;;18.73;;
7181;SDS011;3632;42.724;23.298;2023-07-31T03:37:20;20.17;;;18.27;;
7181;SDS011;3632;42.724;23.298;2023-07-31T03:39:47;20.07;;;18.37;;
7181;SDS011;3632;42.724;23.298;2023-07-31T03:42:13;20.87;;;18.87;;
7181;SDS011;3632;42.724;23.298;2023-07-31T03:44:41;19.47;;;17.77;;
7181;SDS011;3632;42.724;23.298;2023-07-31T03:47:08;19.63;;;17.83;;
7181;SDS011;3632;42.724;23.298;2023-07-31T03:49:35;19.63;;;17.93;;
7181;SDS011;3632;42.724;23.298;2023-07-31T03:52:02;19.77;;;17.97;;
7181;SDS011;3632;42.724;23.298;2023-07-31T03:54:28;20.13;;;18.20;;
7181;SDS011;3632;42.724;23.298;2023-07-31T03:56:55;19.20;;;17.40;;
7181;SDS011;3632;42.724;23.298;2023-07-31T03:59:22;19.40;;;17.63;;
7181;SDS011;3632;42.724;23.298;2023-07-31T04:01:50;20.30;;;18.30;;
7181;SDS011;3632;42.724;23.298;2023-07-31T04:04:17;21.20;;;19.27;;
7181;SDS011;3632;42.724;23.298;2023-07-31T04:06:43;21.40;;;19.37;;
7181;SDS011;3632;42.724;23.298;2023-07-31T04:09:10;22.10;;;20.03;;
7181;SDS011;3632;42.724;23.298;2023-07-31T04:11:37;21.40;;;19.30;;
7181;SDS011;3632;42.724;23.298;2023-07-31T04:14:04;22.33;;;20.30;;
7181;SDS011;3632;42.724;23.298;2023-07-31T04:16:31;24.47;;;22.17;;
7181;SDS011;3632;42.724;23.298;2023-07-31T04:18:59;26.60;;;23.73;;
7181;SDS011;3632;42.724;23.298;2023-07-31T04:21:26;24.63;;;22.23;;
7181;SDS011;3632;42.724;23.298;2023-07-31T04:23:52;22.13;;;20.03;;
7181;SDS011;3632;42.724;23.298;2023-07-31T04:26:21;21.30;;;19.30;;
7181;SDS011;3632;42.724;23.298;2023-07-31T04:28:48;23.33;;;20.83;;
7181;SDS011;3632;42.724;23.298;2023-07-31T04:31:14;21.93;;;19.83;;
7181;SDS011;3632;42.724;23.298;2023-07-31T04:33:41;22.13;;;20.03;;
7181;SDS011;3632;42.724;23.298;2023-07-31T04:36:09;21.30;;;19.27;;
7181;SDS011;3632;42.724;23.298;2023-07-31T04:38:36;20.77;;;18.70;;
7181;SDS011;3632;42.724;23.298;2023-07-31T04:41:02;22.57;;;20.27;;
7181;SDS011;3632;42.724;23.298;2023-07-31T04:43:30;19.80;;;18.00;;
7181;SDS011;3632;42.724;23.298;2023-07-31T04:45:57;21.23;;;19.03;;
7181;SDS011;3632;42.724;23.298;2023-07-31T04:48:24;21.73;;;19.47;;
7181;SDS011;3632;42.724;23.298;2023-07-31T04:50:50;21.60;;;19.43;;
7181;SDS011;3632;42.724;23.298;2023-07-31T04:53:19;20.93;;;18.93;;
7181;SDS011;3632;42.724;23.298;2023-07-31T04:55:45;21.33;;;19.23;;
7181;SDS011;3632;42.724;23.298;2023-07-31T04:58:12;20.37;;;18.37;;
7181;SDS011;3632;42.724;23.298;2023-07-31T05:00:39;20.63;;;18.63;;
7181;SDS011;3632;42.724;23.298;2023-07-31T05:03:05;19.87;;;18.03;;
7181;SDS011;3632;42.724;23.298;2023-07-31T05:05:32;19.13;;;17.27;;
7181;SDS011;3632;42.724;23.298;2023-07-31T05:07:59;19.90;;;17.97;;
7181;SDS011;3632;42.724;23.298;2023-07-31T05:10:27;18.80;;;17.03;;
7181;SDS011;3632;42.724;23.298;2023-07-31T05:12:54;19.20;;;17.40;;
7181;SDS011;3632;42.724;23.298;2023-07-31T05:15:20;18.30;;;16.37;;
7181;SDS011;3632;42.724;23.298;2023-07-31T05:17:47;18.10;;;16.47;;
7181;SDS011;3632;42.724;23.298;2023-07-31T05:20:14;18.47;;;16.87;;
7181;SDS011;3632;42.724;23.298;2023-07-31T05:22:41;17.23;;;15.57;;
7181;SDS011;3632;42.724;23.298;2023-07-31T05:25:08;17.73;;;16.13;;
7181;SDS011;3632;42.724;23.298;2023-07-31T05:27:36;17.33;;;15.73;;
7181;SDS011;3632;42.724;23.298;2023-07-31T05:30:03;16.33;;;15.03;;
7181;SDS011;3632;42.724;23.298;2023-07-31T05:32:30;15.80;;;14.50;;
7181;SDS011;3632;42.724;23.298;2023-07-31T05:34:57;14.10;;;12.80;;
7181;SDS011;3632;42.724;23.298;2023-07-31T05:37:24;13.93;;;12.73;;
7181;SDS011;3632;42.724;23.298;2023-07-31T05:39:50;14.23;;;13.03;;
7181;SDS011;3632;42.724;23.298;2023-07-31T05:42:17;13.90;;;12.80;;
7181;SDS011;3632;42.724;23.298;2023-07-31T05:44:45;12.57;;;11.27;;
7181;SDS011;3632;42.724;23.298;2023-07-31T05:47:12;11.30;;;10.30;;
7181;SDS011;3632;42.724;23.298;2023-07-31T05:49:39;12.13;;;10.57;;
7181;SDS011;3632;42.724;23.298;2023-07-31T05:52:06;11.50;;;10.23;;
7181;SDS011;3632;42.724;23.298;2023-07-31T05:54:33;12.20;;;10.60;;
7181;SDS011;3632;42.724;23.298;2023-07-31T05:57:00;10.90;;;10.00;;
7181;SDS011;3632;42.724;23.298;2023-07-31T05:59:27;10.53;;;9.53;;
7181;SDS011;3632;42.724;23.298;2023-07-31T06:01:55;9.43;;;8.63;;
7181;SDS011;3632;42.724;23.298;2023-07-31T06:04:22;8.03;;;7.33;;
7181;SDS011;3632;42.724;23.298;2023-07-31T06:06:50;8.63;;;7.70;;
7181;SDS011;3632;42.724;23.298;2023-07-31T06:09:17;8.57;;;7.67;;
7181;SDS011;3632;42.724;23.298;2023-07-31T06:11:45;8.33;;;7.53;;
7181;SDS011;3632;42.724;23.298;2023-07-31T06:14:12;8.03;;;7.23;;
7181;SDS011;3632;42.724;23.298;2023-07-31T06:16:38;9.50;;;7.13;;
7181;SDS011;3632;42.724;23.298;2023-07-31T06:19:07;8.03;;;6.70;;
7181;SDS011;3632;42.724;23.298;2023-07-31T06:21:35;7.53;;;6.17;;
7181;SDS011;3632;42.724;23.298;2023-07-31T06:24:02;6.77;;;6.17;;
7181;SDS011;3632;42.724;23.298;2023-07-31T06:26:29;6.83;;;6.13;;
7181;SDS011;3632;42.724;23.298;2023-07-31T06:28:56;7.20;;;6.47;;
7181;SDS011;3632;42.724;23.298;2023-07-31T06:31:23;11.00;;;7.00;;
7181;SDS011;3632;42.724;23.298;2023-07-31T06:33:50;6.93;;;6.20;;
7181;SDS011;3632;42.724;23.298;2023-07-31T06:36:19;6.60;;;6.00;;
7181;SDS011;3632;42.724;23.298;2023-07-31T06:38:45;8.63;;;6.40;;
7181;SDS011;3632;42.724;23.298;2023-07-31T06:41:12;8.60;;;5.80;;
7181;SDS011;3632;42.724;23.298;2023-07-31T06:43:39;5.63;;;5.17;;
7181;SDS011;3632;42.724;23.298;2023-07-31T06:46:06;6.07;;;5.43;;
7181;SDS011;3632;42.724;23.298;2023-07-31T06:48:33;7.87;;;5.20;;
7181;SDS011;3632;42.724;23.298;2023-07-31T06:51:00;5.93;;;5.33;;
7181;SDS011;3632;42.724;23.298;2023-07-31T06:53:28;8.10;;;5.40;;
7181;SDS011;3632;42.724;23.298;2023-07-31T06:55:55;7.60;;;5.00;;
7181;SDS011;3632;42.724;23.298;2023-07-31T06:58:23;6.17;;;5.33;;
7181;SDS011;3632;42.724;23.298;2023-07-31T07:00:50;8.90;;;4.83;;
7181;SDS011;3632;42.724;23.298;2023-07-31T07:03:18;5.67;;;4.70;;
7181;SDS011;3632;42.724;23.298;2023-07-31T07:05:46;4.97;;;4.40;;
7181;SDS011;3632;42.724;23.298;2023-07-31T07:08:13;5.63;;;4.73;;
7181;SDS011;3632;42.724;23.298;2023-07-31T07:10:41;7.20;;;4.47;;
7181;SDS011;3632;42.724;23.298;2023-07-31T07:13:11;6.23;;;4.50;;
7181;SDS011;3632;42.724;23.298;2023-07-31T07:15:39;5.30;;;4.20;;
7181;SDS011;3632;42.724;23.298;2023-07-31T07:18:06;5.07;;;4.20;;
7181;SDS011;3632;42.724;23.298;2023-07-31T07:20:35;4.27;;;3.70;;
7181;SDS011;3632;42.724;23.298;2023-07-31T07:23:02;4.60;;;4.20;;
7181;SDS011;3632;42.724;23.298;2023-07-31T07:25:29;5.90;;;4.17;;
7181;SDS011;3632;42.724;23.298;2023-07-31T07:27:57;6.73;;;4.80;;
7181;SDS011;3632;42.724;23.298;2023-07-31T07:30:24;6.57;;;4.10;;
7181;SDS011;3632;42.724;23.298;2023-07-31T07:32:51;5.97;;;4.67;;
7181;SDS011;3632;42.724;23.298;2023-07-31T07:35:18;6.67;;;4.60;;
7181;SDS011;3632;42.724;23.298;2023-07-31T07:37:45;5.07;;;3.97;;
7181;SDS011;3632;42.724;23.298;2023-07-31T07:40:14;4.40;;;4.00;;
7181;SDS011;3632;42.724;23.298;2023-07-31T07:42:41;6.87;;;4.17;;
7181;SDS011;3632;42.724;23.298;2023-07-31T07:45:10;5.17;;;3.73;;
7181;SDS011;3632;42.724;23.298;2023-07-31T07:47:37;4.40;;;3.50;;
7181;SDS011;3632;42.724;23.298;2023-07-31T07:50:04;5.63;;;3.77;;
7181;SDS011;3632;42.724;23.298;2023-07-31T07:52:32;4.07;;;3.67;;
7181;SDS011;3632;42.724;23.298;2023-07-31T07:54:58;7.67;;;3.70;;
7181;SDS011;3632;42.724;23.298;2023-07-31T07:57:26;6.90;;;3.73;;
7181;SDS011;3632;42.724;23.298;2023-07-31T07:59:53;4.27;;;3.83;;
7181;SDS011;3632;42.724;23.298;2023-07-31T08:02:21;4.07;;;3.67;;
7181;SDS011;3632;42.724;23.298;2023-07-31T08:04:48;4.20;;;3.80;;
7181;SDS011;3632;42.724;23.298;2023-07-31T08:07:15;4.80;;;3.30;;
7181;SDS011;3632;42.724;23.298;2023-07-31T08:09:41;3.80;;;3.50;;
7181;SDS011;3632;42.724;23.298;2023-07-31T08:12:08;3.60;;;3.30;;
7181;SDS011;3632;42.724;23.298;2023-07-31T08:14:35;3.67;;;3.37;;
7181;SDS011;3632;42.724;23.298;2023-07-31T08:17:02;4.83;;;3.70;;
7181;SDS011;3632;42.724;23.298;2023-07-31T08:19:31;4.17;;;3.60;;
7181;SDS011;3632;42.724;23.298;2023-07-31T08:21:57;4.67;;;3.70;;
7181;SDS011;3632;42.724;23.298;2023-07-31T08:24:24;4.23;;;3.70;;
7181;SDS011;3632;42.724;23.298;2023-07-31T08:26:51;4.67;;;3.20;;
7181;SDS011;3632;42.724;23.298;2023-07-31T08:29:18;4.37;;;3.47;;
7181;SDS011;3632;42.724;23.298;2023-07-31T08:31:45;4.47;;;3.20;;
7181;SDS011;3632;42.724;23.298;2023-07-31T08:34:12;4.50;;;3.47;;
7181;SDS011;3632;42.724;23.298;2023-07-31T08:36:40;3.70;;;3.40;;
7181;SDS011;3632;42.724;23.298;2023-07-31T08:39:07;5.90;;;3.40;;
7181;SDS011;3632;42.724;23.298;2023-07-31T08:41:37;4.53;;;3.77;;
7181;SDS011;3632;42.724;23.298;2023-07-31T08:44:04;4.63;;;3.47;;
7181;SDS011;3632;42.724;23.298;2023-07-31T08:46:31;5.83;;;3.50;;
7181;SDS011;3632;42.724;23.298;2023-07-31T08:49:00;6.43;;;3.20;;
7181;SDS011;3632;42.724;23.298;2023-07-31T08:51:30;4.17;;;3.50;;
7181;SDS011;3632;42.724;23.298;2023-07-31T08:53:58;4.53;;;3.10;;
7181;SDS011;3632;42.724;23.298;2023-07-31T08:56:25;3.67;;;3.10;;
7181;SDS011;3632;42.724;23.298;2023-07-31T08:58:52;3.80;;;3.50;;
7181;SDS011;3632;42.724;23.298;2023-07-31T09:01:20;5.27;;;3.27;;
7181;SDS011;3632;42.724;23.298;2023-07-31T09:03:48;4.70;;;2.90;;
7181;SDS011;3632;42.724;23.298;2023-07-31T09:06:17;5.07;;;3.37;;
7181;SDS011;3632;42.724;23.298;2023-07-31T09:08:47;5.60;;;3.50;;
7181;SDS011;3632;42.724;23.298;2023-07-31T09:11:17;3.87;;;3.57;;
7181;SDS011;3632;42.724;23.298;2023-07-31T09:13:44;8.67;;;7.10;;
7181;SDS011;3632;42.724;23.298;2023-07-31T09:16:12;5.57;;;3.43;;
7181;SDS011;3632;42.724;23.298;2023-07-31T09:18:52;4.37;;;3.60;;
7181;SDS011;3632;42.724;23.298;2023-07-31T09:21:20;3.73;;;3.30;;
7181;SDS011;3632;42.724;23.298;2023-07-31T09:23:47;4.07;;;3.30;;
7181;SDS011;3632;42.724;23.298;2023-07-31T09:28:58;3.83;;;3.30;;
7181;SDS011;3632;42.724;23.298;2023-07-31T09:31:32;3.90;;;3.13;;
7181;SDS011;3632;42.724;23.298;2023-07-31T09:33:59;3.13;;;2.83;;
7181;SDS011;3632;42.724;23.298;2023-07-31T09:36:28;4.00;;;2.90;;
7181;SDS011;3632;42.724;23.298;2023-07-31T09:38:58;10.60;;;3.80;;
7181;SDS011;3632;42.724;23.298;2023-07-31T09:41:28;4.67;;;4.27;;
7181;SDS011;3632;42.724;23.298;2023-07-31T09:43:57;3.00;;;2.77;;
7181;SDS011;3632;42.724;23.298;2023-07-31T09:46:23;2.70;;;2.50;;
7181;SDS011;3632;42.724;23.298;2023-07-31T09:49:03;3.83;;;2.93;;
7181;SDS011;3632;42.724;23.298;2023-07-31T09:51:31;5.07;;;2.70;;
7181;SDS011;3632;42.724;23.298;2023-07-31T09:54:03;4.93;;;3.20;;
7181;SDS011;3632;42.724;23.298;2023-07-31T09:56:42;3.57;;;3.00;;
7181;SDS011;3632;42.724;23.298;2023-07-31T09:59:14;3.97;;;2.67;;
7181;SDS011;3632;42.724;23.298;2023-07-31T10:01:43;3.73;;;2.70;;
7181;SDS011;3632;42.724;23.298;2023-07-31T10:04:11;3.03;;;2.27;;
7181;SDS011;3632;42.724;23.298;2023-07-31T10:06:40;2.60;;;2.40;;
7181;SDS011;3632;42.724;23.298;2023-07-31T10:09:08;3.23;;;2.93;;
7181;SDS011;3632;42.724;23.298;2023-07-31T10:11:38;2.60;;;2.40;;
7181;SDS011;3632;42.724;23.298;2023-07-31T10:14:16;6.10;;;2.60;;
7181;SDS011;3632;42.724;23.298;2023-07-31T10:16:44;4.07;;;2.50;;
7181;SDS011;3632;42.724;23.298;2023-07-31T10:19:11;3.37;;;2.87;;
7181;SDS011;3632;42.724;23.298;2023-07-31T10:21:38;3.33;;;2.43;;
7181;SDS011;3632;42.724;23.298;2023-07-31T10:24:06;4.73;;;2.73;;
7181;SDS011;3632;42.724;23.298;2023-07-31T10:26:34;3.80;;;2.27;;
7181;SDS011;3632;42.724;23.298;2023-07-31T10:29:05;2.53;;;2.33;;
7181;SDS011;3632;42.724;23.298;2023-07-31T10:31:33;2.50;;;2.30;;
7181;SDS011;3632;42.724;23.298;2023-07-31T10:34:03;2.43;;;2.20;;
7181;SDS011;3632;42.724;23.298;2023-07-31T10:36:32;4.47;;;2.30;;
7181;SDS011;3632;42.724;23.298;2023-07-31T10:38:59;4.83;;;3.40;;
7181;SDS011;3632;42.724;23.298;2023-07-31T10:41:30;2.57;;;2.30;;
7181;SDS011;3632;42.724;23.298;2023-07-31T10:43:57;3.70;;;2.40;;
7181;SDS011;3632;42.724;23.298;2023-07-31T10:46:26;2.47;;;2.27;;
7181;SDS011;3632;42.724;23.298;2023-07-31T10:48:57;3.53;;;2.60;;
7181;SDS011;3632;42.724;23.298;2023-07-31T10:51:24;3.58;;;2.45;;
7181;SDS011;3632;42.724;23.298;2023-07-31T10:54:10;3.27;;;2.40;;
7181;SDS011;3632;42.724;23.298;2023-07-31T10:56:37;2.75;;;2.13;;
7181;SDS011;3632;42.724;23.298;2023-07-31T10:59:04;2.95;;;2.22;;
7181;SDS011;3632;42.724;23.298;2023-07-31T11:04:21;3.83;;;2.30;;
7181;SDS011;3632;42.724;23.298;2023-07-31T11:06:55;2.70;;;2.10;;
7181;SDS011;3632;42.724;23.298;2023-07-31T11:09:22;4.18;;;2.10;;
7181;SDS011;3632;42.724;23.298;2023-07-31T11:11:48;4.20;;;2.72;;
7181;SDS011;3632;42.724;23.298;2023-07-31T11:14:17;2.75;;;2.33;;
7181;SDS011;3632;42.724;23.298;2023-07-31T11:16:44;3.78;;;2.08;;
7181;SDS011;3632;42.724;23.298;2023-07-31T11:19:12;3.70;;;2.30;;
7181;SDS011;3632;42.724;23.298;2023-07-31T11:21:38;3.42;;;2.17;;
7181;SDS011;3632;42.724;23.298;2023-07-31T11:24:06;2.35;;;2.08;;
7181;SDS011;3632;42.724;23.298;2023-07-31T11:26:33;3.03;;;2.00;;
7181;SDS011;3632;42.724;23.298;2023-07-31T11:28:59;3.72;;;2.35;;
7181;SDS011;3632;42.724;23.298;2023-07-31T11:31:26;2.40;;;2.20;;
7181;SDS011;3632;42.724;23.298;2023-07-31T11:34:03;3.50;;;2.80;;
7181;SDS011;3632;42.724;23.298;2023-07-31T11:36:32;5.37;;;3.20;;
7181;SDS011;3632;42.724;23.298;2023-07-31T11:39:04;3.22;;;2.80;;
7181;SDS011;3632;42.724;23.298;2023-07-31T11:41:31;3.20;;;2.80;;
7181;SDS011;3632;42.724;23.298;2023-07-31T11:43:59;3.63;;;2.95;;
7181;SDS011;3632;42.724;23.298;2023-07-31T11:46:25;5.05;;;2.63;;
7181;SDS011;3632;42.724;23.298;2023-07-31T11:48:55;4.70;;;2.88;;
7181;SDS011;3632;42.724;23.298;2023-07-31T11:51:25;3.08;;;2.88;;
7181;SDS011;3632;42.724;23.298;2023-07-31T11:53:56;3.70;;;3.20;;
7181;SDS011;3632;42.724;23.298;2023-07-31T11:56:26;6.28;;;3.17;;
7181;SDS011;3632;42.724;23.298;2023-07-31T11:58:53;3.63;;;3.33;;
7181;SDS011;3632;42.724;23.298;2023-07-31T12:01:23;3.15;;;2.92;;
7181;SDS011;3632;42.724;23.298;2023-07-31T12:03:51;4.43;;;3.30;;
7181;SDS011;3632;42.724;23.298;2023-07-31T12:06:18;3.53;;;3.08;;
7181;SDS011;3632;42.724;23.298;2023-07-31T12:08:46;5.72;;;4.60;;
7181;SDS011;3632;42.724;23.298;2023-07-31T12:11:14;6.35;;;4.28;;
7181;SDS011;3632;42.724;23.298;2023-07-31T12:13:42;4.57;;;4.07;;
7181;SDS011;3632;42.724;23.298;2023-07-31T12:16:09;5.78;;;4.82;;
7181;SDS011;3632;42.724;23.298;2023-07-31T12:18:36;5.40;;;4.90;;
7181;SDS011;3632;42.724;23.298;2023-07-31T12:21:05;7.80;;;5.00;;
7181;SDS011;3632;42.724;23.298;2023-07-31T12:23:33;5.53;;;5.07;;
7181;SDS011;3632;42.724;23.298;2023-07-31T12:26:01;4.97;;;4.50;;
7181;SDS011;3632;42.724;23.298;2023-07-31T12:28:32;4.55;;;4.25;;
7181;SDS011;3632;42.724;23.298;2023-07-31T12:31:03;5.30;;;4.47;;
7181;SDS011;3632;42.724;23.298;2023-07-31T12:33:31;6.70;;;4.78;;
7181;SDS011;3632;42.724;23.298;2023-07-31T12:36:00;6.80;;;4.15;;
7181;SDS011;3632;42.724;23.298;2023-07-31T12:38:27;5.15;;;4.20;;
7181;SDS011;3632;42.724;23.298;2023-07-31T12:40:54;5.47;;;4.97;;
7181;SDS011;3632;42.724;23.298;2023-07-31T12:43:20;7.20;;;5.50;;
7181;SDS011;3632;42.724;23.298;2023-07-31T12:45:49;6.47;;;5.40;;
7181;SDS011;3632;42.724;23.298;2023-07-31T12:48:15;7.30;;;5.15;;
7181;SDS011;3632;42.724;23.298;2023-07-31T12:50:42;6.40;;;5.90;;
7181;SDS011;3632;42.724;23.298;2023-07-31T12:53:09;6.00;;;5.38;;
7181;SDS011;3632;42.724;23.298;2023-07-31T12:55:35;5.65;;;5.15;;
7181;SDS011;3632;42.724;23.298;2023-07-31T12:58:02;6.18;;;5.68;;
7181;SDS011;3632;42.724;23.298;2023-07-31T13:00:29;6.20;;;5.60;;
7181;SDS011;3632;42.724;23.298;2023-07-31T13:02:57;5.43;;;4.90;;
7181;SDS011;3632;42.724;23.298;2023-07-31T13:05:24;4.93;;;4.50;;
7181;SDS011;3632;42.724;23.298;2023-07-31T13:07:51;6.13;;;4.88;;
7181;SDS011;3632;42.724;23.298;2023-07-31T13:10:17;5.65;;;5.15;;
7181;SDS011;3632;42.724;23.298;2023-07-31T13:12:44;6.47;;;5.38;;
7181;SDS011;3632;42.724;23.298;2023-07-31T13:15:11;6.10;;;4.70;;
7181;SDS011;3632;42.724;23.298;2023-07-31T13:17:38;5.05;;;4.55;;
7181;SDS011;3632;42.724;23.298;2023-07-31T13:20:07;7.65;;;4.63;;
7181;SDS011;3632;42.724;23.298;2023-07-31T13:22:34;5.15;;;4.72;;
7181;SDS011;3632;42.724;23.298;2023-07-31T13:25:00;7.07;;;4.82;;
7181;SDS011;3632;42.724;23.298;2023-07-31T13:27:28;5.10;;;4.30;;
7181;SDS011;3632;42.724;23.298;2023-07-31T13:29:55;4.90;;;4.38;;
7181;SDS011;3632;42.724;23.298;2023-07-31T13:32:21;5.13;;;4.30;;
7181;SDS011;3632;42.724;23.298;2023-07-31T13:34:51;4.85;;;4.28;;
7181;SDS011;3632;42.724;23.298;2023-07-31T13:37:19;4.43;;;4.13;;
7181;SDS011;3632;42.724;23.298;2023-07-31T13:39:46;4.88;;;4.45;;
7181;SDS011;3632;42.724;23.298;2023-07-31T13:42:12;4.93;;;4.50;;
7181;SDS011;3632;42.724;23.298;2023-07-31T13:44:39;5.75;;;4.75;;
7181;SDS011;3632;42.724;23.298;2023-07-31T13:47:06;4.10;;;3.80;;
7181;SDS011;3632;42.724;23.298;2023-07-31T13:49:34;3.72;;;3.42;;
7181;SDS011;3632;42.724;23.298;2023-07-31T13:52:01;4.15;;;3.80;;
7181;SDS011;3632;42.724;23.298;2023-07-31T13:54:30;4.13;;;3.83;;
7181;SDS011;3632;42.724;23.298;2023-07-31T13:56:57;4.70;;;4.30;;
7181;SDS011;3632;42.724;23.298;2023-07-31T13:59:23;4.97;;;4.53;;
7181;SDS011;3632;42.724;23.298;2023-07-31T14:01:51;5.05;;;4.65;;
7181;SDS011;3632;42.724;23.298;2023-07-31T14:04:18;4.20;;;3.90;;
7181;SDS011;3632;42.724;23.298;2023-07-31T14:06:48;4.05;;;3.75;;
7181;SDS011;3632;42.724;23.298;2023-07-31T14:09:15;4.80;;;4.30;;
7181;SDS011;3632;42.724;23.298;2023-07-31T14:11:44;4.63;;;3.60;;
7181;SDS011;3632;42.724;23.298;2023-07-31T14:14:11;4.13;;;3.80;;
7181;SDS011;3632;42.724;23.298;2023-07-31T14:16:38;3.97;;;3.67;;
7181;SDS011;3632;42.724;23.298;2023-07-31T14:19:05;4.05;;;3.75;;
7181;SDS011;3632;42.724;23.298;2023-07-31T14:21:33;4.07;;;3.75;;
7181;SDS011;3632;42.724;23.298;2023-07-31T14:24:00;4.50;;;4.10;;
7181;SDS011;3632;42.724;23.298;2023-07-31T14:26:26;6.43;;;4.05;;
7181;SDS011;3632;42.724;23.298;2023-07-31T14:28:54;5.25;;;3.45;;
7181;SDS011;3632;42.724;23.298;2023-07-31T14:31:21;5.60;;;3.50;;
7181;SDS011;3632;42.724;23.298;2023-07-31T14:33:48;4.10;;;3.58;;
7181;SDS011;3632;42.724;23.298;2023-07-31T14:36:15;3.83;;;3.53;;
7181;SDS011;3632;42.724;23.298;2023-07-31T14:38:41;4.20;;;3.53;;
7181;SDS011;3632;42.724;23.298;2023-07-31T14:41:08;3.92;;;3.58;;
7181;SDS011;3632;42.724;23.298;2023-07-31T14:43:35;4.05;;;3.70;;
7181;SDS011;3632;42.724;23.298;2023-07-31T14:46:03;4.47;;;3.35;;
7181;SDS011;3632;42.724;23.298;2023-07-31T14:48:31;4.00;;;3.70;;
7181;SDS011;3632;42.724;23.298;2023-07-31T14:50:57;4.13;;;3.65;;
7181;SDS011;3632;42.724;23.298;2023-07-31T14:53:25;4.20;;;3.80;;
7181;SDS011;3632;42.724;23.298;2023-07-31T14:55:52;4.30;;;3.20;;
7181;SDS011;3632;42.724;23.298;2023-07-31T14:58:18;4.50;;;4.10;;
7181;SDS011;3632;42.724;23.298;2023-07-31T15:00:45;5.05;;;3.20;;